Main page
METAR-TAF:

METAR-TAF

Airports :

Ismailia Air Base

Ismaïlia, Egypt

latitude: 30-35-54N, longitude: 032-14-13E, elevation: 13 m

Current weather observation

The report was made 59 minutes ago, at 07:00 UTC
Wind 9 kt from the West
Temperature 30°C
Humidity 70%
Pressure 1006 hPa
Visibility: 3000 m
haze

METAR: HEIS 300700Z 28009KT 3000 HZ NSC 30/24 Q1006

Time: 09:59 (07:59 UTC)


TAF: missing

Weather observations and forecasts of more than 4000 airports (METAR and TAF reports).

The available stations are represented by yellow and red dots on the map.

Hover mouse over dot to see the name of the station.

Then click to see weather observations and forecasts.

To change the map : click on the green buttons with a black cross to zoom in, on the green button with a dash to zoom out, or on the green arrows for adjacent maps.


METAR-TAF: